Terminal Aerodrome Forecast
Issued by NWS Topeka, KS

Home | Current Version | Previous Version | Text Only | Print | Product List | Glossary Off
Versions: 1 2 3 4 5 6 7 8 9 10 11 12 13 14 15 16 17 18 19 20 21 22 23 24 25

000
FTUS43 KTOP 271846 AAA
TAFTOP
TAF AMD
KTOP 271846Z 2719/2818 14010KT P6SM VCTS SCT040CB
      TEMPO 2719/2722 3SM -TSRA BR BKN025CB
     FM280600 14003KT P6SM SCT030 BKN100=

USA.gov is the U.S. government's official web portal to all federal, state and local government web resources and services.